• Join FlightAware (Why Join?)
  • Login
  • US Flag 
09:17AM EST


 

Airport Tracker/Info


-or-


 

Live Flight TrackerFlight Track Log ✈ VH-UPY ✈ 11-Sep-2013 ✈ YBCS / CNS - YHBA / HVB

Flight Track Log - Related Links

Times and Time Zones

All times are in EDT time to prevent confusion due to time zone crossing. See the VH-UPY flight status page for this flight to view local times or setup timezone preferences in your user account.

Time Position Orientation Groundspeed Altitude Reporting Facility
EDT Latitude Longitude Course Direction KTS MPH feet Rate Location/Type
06:44PM -16.8952 145.7680 32° Northeast 97 112 900  Level Aus ATC (RADAR)
06:45PM -16.8801 145.7779 32° Northeast 110 127 1,100 420 Climbing Aus ATC (RADAR)
06:46PM -16.8573 145.7948 35° Northeast 123 142 1,500 480 Climbing Aus ATC (RADAR)
06:46PM -16.8458 145.8050 40° Northeast 129 148 1,700 600 Climbing Aus ATC (RADAR)
06:47PM -16.8160 145.8310 40° Northeast 129 148 2,400 600 Climbing Aus ATC (RADAR)
06:48PM -16.8053 145.8405 40° Northeast 124 143 2,600 600 Climbing Aus ATC (RADAR)
06:48PM -16.8017 145.8590 79° East 122 140 3,000 660 Climbing Aus ATC (RADAR)
06:49PM -16.8144 145.8812 121° Southeast 122 140 3,500 600 Climbing Aus ATC (RADAR)
06:50PM -16.8330 145.8904 155° Southeast 126 145 3,800 540 Climbing Aus ATC (RADAR)
06:50PM -16.8583 145.9067 148° Southeast 128 147 4,300 660 Climbing Aus ATC (RADAR)
06:51PM -16.8734 145.9165 148° Southeast 128 147 4,700 600 Climbing Aus ATC (RADAR)
06:51PM -16.8909 145.9281 148° Southeast 127 146 5,000 540 Climbing Aus ATC (RADAR)
06:53PM -16.9288 145.9546 146° Southeast 128 147 5,800 600 Climbing Aus ATC (RADAR)
06:53PM -16.9420 145.9624 151° Southeast 131 151 6,100 600 Climbing Aus ATC (RADAR)
06:54PM -16.9598 145.9749 146° Southeast 132 152 6,400 600 Climbing Aus ATC (RADAR)
06:55PM -16.9817 145.9935 141° Southeast 135 155 6,900 540 Climbing Aus ATC (RADAR)
06:55PM -17.0019 146.0081 145° Southeast 132 152 7,200 540 Climbing Aus ATC (RADAR)
06:56PM -17.0251 146.0246 146° Southeast 134 154 7,700 600 Climbing Aus ATC (RADAR)
06:56PM -17.0376 146.0338 145° Southeast 133 153 7,900 600 Climbing Aus ATC (RADAR)
06:58PM -17.0814 146.0653 145° Southeast 135 155 8,800 600 Climbing Aus ATC (RADAR)
06:58PM -17.0890 146.0709 145° Southeast 136 157 8,900 600 Climbing Aus ATC (RADAR)
06:59PM -17.1072 146.0837 146° Southeast 135 155 9,300 660 Climbing Aus ATC (RADAR)
06:59PM -17.1336 146.1028 145° Southeast 139 160 9,900 600 Climbing Aus ATC (RADAR)
07:00PM -17.1527 146.1163 146° Southeast 141 162 10,200 600 Climbing Aus ATC (RADAR)
07:01PM -17.1834 146.1385 145° Southeast 145 167 10,800 600 Climbing Aus ATC (RADAR)
07:01PM -17.1917 146.1447 145° Southeast 144 166 10,900 540 Climbing Aus ATC (RADAR)
07:03PM -17.2409 146.1799 146° Southeast 162 186 11,700 600 Climbing Aus ATC (RADAR)
07:03PM -17.2601 146.1937 145° Southeast 166 191 12,000 600 Climbing Aus ATC (RADAR)
07:03PM -17.2763 146.2053 146° Southeast 169 194 12,300 600 Climbing Aus ATC (RADAR)
07:04PM -17.2995 146.2224 145° Southeast 174 200 12,600 480 Climbing Aus ATC (RADAR)
07:05PM -17.3270 146.2421 146° Southeast 181 208 12,900 480 Climbing Aus ATC (RADAR)
07:05PM -17.3584 146.2647 145° Southeast 182 209 13,300 480 Climbing Aus ATC (RADAR)
07:06PM -17.3902 146.2880 145° Southeast 187 215 13,700 480 Climbing Aus ATC (RADAR)
07:07PM -17.4084 146.3006 147° Southeast 188 216 13,900 480 Climbing Aus ATC (RADAR)
07:07PM -17.4412 146.3241 146° Southeast 189 217 14,300 480 Climbing Aus ATC (RADAR)
07:08PM -17.4668 146.3428 145° Southeast 192 221 14,600 480 Climbing Aus ATC (RADAR)
07:09PM -17.4964 146.3636 146° Southeast 192 221 14,900 480 Climbing Aus ATC (RADAR)
07:09PM -17.5291 146.3880 145° Southeast 191 220 15,300 540 Climbing Aus ATC (RADAR)
07:10PM -17.5513 146.4039 145° Southeast 192 221 15,600 480 Climbing Aus ATC (RADAR)
07:10PM -17.5730 146.4196 145° Southeast 190 219 15,800 480 Climbing Aus ATC (RADAR)
07:11PM -17.6088 146.4450 146° Southeast 184 212 16,300 540 Climbing Aus ATC (RADAR)
07:12PM -17.6339 146.4632 145° Southeast 188 216 16,600 420 Climbing Aus ATC (RADAR)
07:13PM -17.6771 146.4945 145° Southeast 190 219 17,000 300 Climbing Aus ATC (RADAR)
07:13PM -17.6959 146.5079 146° Southeast 194 223 17,100 60 Climbing Aus ATC (RADAR)
07:14PM -17.7234 146.5276 146° Southeast 205 236 17,100  Level Aus ATC (RADAR)
07:15PM -17.7595 146.5541 145° Southeast 212 244 17,100  Level Aus ATC (RADAR)
07:15PM -17.7914 146.5770 146° Southeast 209 241 17,100  Level Aus ATC (RADAR)
07:16PM -17.8310 146.6058 145° Southeast 208 239 17,100  Level Aus ATC (RADAR)
07:16PM -17.8465 146.6170 145° Southeast 205 236 17,100  Level Aus ATC (RADAR)
07:17PM -17.8740 146.6368 146° Southeast 205 236 17,100  Level Aus ATC (RADAR)
07:18PM -17.9253 146.6742 145° Southeast 207 238 17,100  Level Aus ATC (RADAR)
07:18PM -17.9414 146.6853 147° Southeast 208 239 17,100  Level Aus ATC (RADAR)
07:19PM -17.9739 146.7059 149° Southeast 205 236 17,100  Level Aus ATC (RADAR)
07:20PM -18.0106 146.7288 149° Southeast 204 235 17,100  Level Aus ATC (RADAR)
07:20PM -18.0392 146.7462 150° Southeast 205 236 17,100  Level Aus ATC (RADAR)
07:21PM -18.0797 146.7716 149° Southeast 203 234 17,100  Level Aus ATC (RADAR)
07:21PM -18.0964 146.7815 151° Southeast 205 236 17,100  Level Aus ATC (RADAR)
07:22PM -18.1249 146.7996 149° Southeast 206 237 17,100  Level Aus ATC (RADAR)
07:23PM -18.1784 146.8327 150° Southeast 206 237 17,100  Level Aus ATC (RADAR)
07:24PM -18.1992 146.8455 150° Southeast 208 239 17,100  Level Aus ATC (RADAR)
07:24PM -18.2280 146.8636 149° Southeast 206 237 17,100  Level Aus ATC (RADAR)
07:25PM -18.2698 146.8896 149° Southeast 210 242 17,100  Level Aus ATC (RADAR)
07:26PM -18.2983 146.9073 149° Southeast 205 236 17,100  Level Aus ATC (RADAR)
07:26PM -18.3399 146.9331 150° Southeast 211 243 17,100  Level Aus ATC (RADAR)
07:27PM -18.3607 146.9458 150° Southeast 208 239 17,100  Level Aus ATC (RADAR)
07:28PM -18.4183 146.9812 150° Southeast 207 238 17,100  Level Aus ATC (RADAR)
07:29PM -18.4474 146.9995 149° Southeast 209 241 17,100  Level Aus ATC (RADAR)
07:29PM -18.4597 147.0072 149° Southeast 210 242 17,100  Level Aus ATC (RADAR)
07:29PM -18.4893 147.0256 150° Southeast 212 244 17,100  Level Aus ATC (RADAR)
07:30PM -18.5308 147.0522 149° Southeast 212 244 17,100  Level Aus ATC (RADAR)
07:31PM -18.5643 147.0725 150° Southeast 211 243 17,100  Level Aus ATC (RADAR)
07:32PM -18.6066 147.0992 149° Southeast 215 247 17,100  Level Aus ATC (RADAR)
07:32PM -18.6359 147.1177 149° Southeast 213 245 17,100  Level Aus ATC (RADAR)
07:34PM -18.7033 147.1590 150° Southeast 212 244 17,100  Level Aus ATC (RADAR)
07:34PM -18.7239 147.1720 149° Southeast 207 238 17,100  Level Aus ATC (RADAR)
07:35PM -18.7534 147.1910 149° Southeast 213 245 17,100  Level Aus ATC (RADAR)
07:35PM -18.7912 147.2141 150° Southeast 210 242 17,100  Level Aus ATC (RADAR)
07:36PM -18.8247 147.2353 149° Southeast 211 243 17,100  Level Aus ATC (RADAR)
07:37PM -18.8629 147.2593 149° Southeast 210 242 17,100  Level Aus ATC (RADAR)
07:37PM -18.8919 147.2769 150° Southeast 209 241 17,100  Level Aus ATC (RADAR)
07:39PM -18.9546 147.3164 149° Southeast 212 244 17,100  Level Aus ATC (RADAR)
07:39PM -18.9798 147.3321 149° Southeast 211 243 17,100  Level Aus ATC (RADAR)
07:40PM -19.0091 147.3506 149° Southeast 211 243 17,100  Level Aus ATC (RADAR)
07:40PM -19.0385 147.3691 149° Southeast 212 244 17,100  Level Aus ATC (RADAR)
07:41PM -19.0676 147.3870 150° Southeast 208 239 17,100  Level Aus ATC (RADAR)
07:42PM -19.1105 147.4137 150° Southeast 213 245 17,100  Level Aus ATC (RADAR)
07:42PM -19.1311 147.4267 149° Southeast 208 239 17,100  Level Aus ATC (RADAR)
07:43PM -19.1948 147.4666 149° Southeast 218 251 17,100  Level Aus ATC (RADAR)
07:44PM -19.2157 147.4798 149° Southeast 211 243 17,100  Level Aus ATC (RADAR)
07:44PM -19.2366 147.4928 150° Southeast 209 241 17,100  Level Aus ATC (RADAR)
07:45PM -19.2701 147.5144 149° Southeast 211 243 17,100  Level Aus ATC (RADAR)
07:46PM -19.3127 147.5408 150° Southeast 213 245 17,100  Level Aus ATC (RADAR)
07:46PM -19.3424 147.5596 149° Southeast 215 247 17,100  Level Aus ATC (RADAR)
07:47PM -19.3851 147.5859 150° Southeast 213 245 17,100  Level Aus ATC (RADAR)
07:48PM -19.4059 147.5991 149° Southeast 210 242 17,100  Level Aus ATC (RADAR)
07:49PM -19.4702 147.6396 149° Southeast 215 247 17,100  Level Aus ATC (RADAR)
07:49PM -19.4958 147.6562 149° Southeast 214 246 17,100  Level Aus ATC (RADAR)
07:50PM -19.5263 147.6753 149° Southeast 218 251 17,100  Level Aus ATC (RADAR)
07:50PM -19.5567 147.6946 149° Southeast 219 252 17,100  Level Aus ATC (RADAR)
07:51PM -19.5874 147.7139 149° Southeast 220 253 17,100  Level Aus ATC (RADAR)
07:52PM -19.6269 147.7392 149° Southeast 221 254 17,100  Level Aus ATC (RADAR)
07:52PM -19.6534 147.7554 150° Southeast 220 253 17,100  Level Aus ATC (RADAR)
07:53PM -19.7067 147.7888 149° Southeast 222 255 17,100  Level Aus ATC (RADAR)
07:54PM -19.7331 147.8054 149° Southeast 220 253 17,100  Level Aus ATC (RADAR)
07:54PM -19.7463 147.8139 149° Southeast 221 254 17,100  Level Aus ATC (RADAR)
07:55PM -19.7770 147.8332 149° Southeast 220 253 17,100  Level Aus ATC (RADAR)
07:56PM -19.8250 147.8639 149° Southeast 219 252 17,100  Level Aus ATC (RADAR)
07:56PM -19.8554 147.8831 149° Southeast 218 251 17,100  Level Aus ATC (RADAR)
07:57PM -19.8943 147.9079 149° Southeast 218 251 17,100  Level Aus ATC (RADAR)
07:57PM -19.9160 147.9213 150° Southeast 216 249 17,100  Level Aus ATC (RADAR)
07:59PM -19.9854 147.9654 149° Southeast 219 252 17,100  Level Aus ATC (RADAR)
07:59PM -20.0113 147.9815 150° Southeast 216 249 17,100  Level Aus ATC (RADAR)
07:59PM -20.0285 147.9928 148° Southeast 217 250 17,100  Level Aus ATC (RADAR)
08:00PM -20.0628 148.0150 149° Southeast 216 249 17,100  Level Aus ATC (RADAR)
08:01PM -20.0932 148.0338 150° Southeast 217 250 17,100  Level Aus ATC (RADAR)
08:01PM -20.1233 148.0529 149° Southeast 216 249 17,100  Level Aus ATC (RADAR)
08:02PM -20.1660 148.0805 149° Southeast 216 249 17,100  Level Aus ATC (RADAR)
08:03PM -20.1873 148.0942 149° Southeast 214 246 17,100  Level Aus ATC (RADAR)
08:04PM -20.2509 148.1349 149° Southeast 214 246 17,100  Level Aus ATC (RADAR)
08:04PM -20.2722 148.1482 149° Southeast 213 245 17,100  Level Aus ATC (RADAR)
08:05PM -20.3017 148.1667 150° Southeast 213 245 17,100  Level Aus ATC (RADAR)
08:06PM -20.3397 148.1912 149° Southeast 212 244 17,100  Level Aus ATC (RADAR)
08:06PM -20.3693 148.2100 149° Southeast 212 244 17,100  Level Aus ATC (RADAR)
08:07PM -20.4111 148.2371 149° Southeast 212 244 17,100  Level Aus ATC (RADAR)
08:07PM -20.4320 148.2508 149° Southeast 211 243 17,100  Level Aus ATC (RADAR)
08:08PM -20.4613 148.2691 150° Southeast 209 241 17,100  Level Aus ATC (RADAR)
08:09PM -20.5109 148.3009 149° Southeast 209 241 17,100  Level Aus ATC (RADAR)
08:09PM -20.5316 148.3143 149° Southeast 208 239 17,100  Level Aus ATC (RADAR)
08:10PM -20.5602 148.3328 149° Southeast 206 237 17,100  Level Aus ATC (RADAR)
08:11PM -20.5934 148.3537 149° Southeast 207 238 17,100  Level Aus ATC (RADAR)
08:11PM -20.6220 148.3724 149° Southeast 206 237 17,100  Level Aus ATC (RADAR)
08:12PM -20.6592 148.3958 150° Southeast 205 236 17,100  Level Aus ATC (RADAR)
08:12PM -20.6796 148.4094 148° Southeast 207 238 17,100  Level Aus ATC (RADAR)
08:13PM -20.7084 148.4281 149° Southeast 207 238 17,100  Level Aus ATC (RADAR)
08:14PM -20.7662 148.4651 149° Southeast 209 241 17,100  Level Aus ATC (RADAR)
08:14PM -20.7871 148.4785 149° Southeast 210 242 17,100  Level Aus ATC (RADAR)
08:15PM -20.8160 148.4974 149° Southeast 210 242 17,100  Level Aus ATC (RADAR)
08:16PM -20.8619 148.5268 149° Southeast 210 242 17,100  Level Aus ATC (RADAR)
08:17PM -20.8910 148.5456 149° Southeast 211 243 17,100  Level Aus ATC (RADAR)
08:17PM -20.9328 148.5725 149° Southeast 211 243 17,100  Level Aus ATC (RADAR)
08:18PM -20.9453 148.5805 149° Southeast 210 242 17,100  Level Aus ATC (RADAR)
08:19PM -20.9996 148.6158 149° Southeast 210 242 17,100  Level Aus ATC (RADAR)
08:19PM -21.0289 148.6347 149° Southeast 211 243 17,100  Level Aus ATC (RADAR)
08:20PM -21.0413 148.6426 149° Southeast 209 241 17,100  Level Aus ATC (RADAR)
08:20PM -21.0704 148.6615 149° Southeast 210 242 17,100  Level Aus ATC (RADAR)
08:21PM -21.1117 148.6883 149° Southeast 207 238 17,100  Level Aus ATC (RADAR)
08:22PM -21.1410 148.7075 149° Southeast 212 244 17,100  Level Aus ATC (RADAR)
08:22PM -21.1865 148.7364 149° Southeast 207 238 17,100  Level Aus ATC (RADAR)
08:23PM -21.1989 148.7441 150° Southeast 208 239 17,100  Level Aus ATC (RADAR)
08:24PM -21.2562 148.7813 149° Southeast 207 238 17,100  Level Aus ATC (RADAR)
08:24PM -21.2808 148.7968 150° Southeast 208 239 17,100  Level Aus ATC (RADAR)
08:25PM -21.2929 148.8048 148° Southeast 207 238 17,100  Level Aus ATC (RADAR)
08:25PM -21.3219 148.8234 149° Southeast 205 236 17,100  Level Aus ATC (RADAR)
08:26PM -21.3631 148.8504 149° Southeast 211 243 17,100  Level Aus ATC (RADAR)
08:27PM -21.3919 148.8690 149° Southeast 207 238 17,100  Level Aus ATC (RADAR)
08:27PM -21.4293 148.8929 149° Southeast 209 241 17,100  Level Aus ATC (RADAR)
08:28PM -21.4497 148.9063 148° Southeast 206 237 17,100  Level Aus ATC (RADAR)
08:29PM -21.5038 148.9417 149° Southeast 212 244 17,100  Level Aus ATC (RADAR)
08:29PM -21.5247 148.9550 149° Southeast 210 242 17,100  Level Aus ATC (RADAR)
08:30PM -21.5456 148.9683 149° Southeast 208 239 17,100  Level Aus ATC (RADAR)
08:30PM -21.5786 148.9901 148° Southeast 210 242 17,100  Level Aus ATC (RADAR)
08:31PM -21.6066 149.0089 148° Southeast 204 235 17,100  Level Aus ATC (RADAR)
08:32PM -21.6369 149.0267 151° Southeast 209 241 17,100  Level Aus ATC (RADAR)
08:32PM -21.6771 149.0539 148° Southeast 205 236 17,100  Level Aus ATC (RADAR)
08:33PM -21.6979 149.0667 150° Southeast 204 235 17,100  Level Aus ATC (RADAR)
08:33PM -21.7265 149.0846 150° Southeast 204 235 17,100  Level Aus ATC (RADAR)
08:35PM -21.7861 149.1237 149° Southeast 202 232 17,100  Level Aus ATC (RADAR)
08:35PM -21.7977 149.1314 149° Southeast 199 229 17,100  Level Aus ATC (RADAR)
08:35PM -21.8255 149.1492 149° Southeast 197 227 17,100  Level Aus ATC (RADAR)
08:36PM -21.8652 149.1750 149° Southeast 201 231 17,100  Level Aus ATC (RADAR)
08:37PM -21.8923 149.1929 149° Southeast 196 226 17,100  Level Aus ATC (RADAR)
08:38PM -21.9308 149.2189 148° Southeast 196 226 17,100  Level Aus ATC (RADAR)
08:38PM -21.9501 149.2314 149° Southeast 193 222 17,100  Level Aus ATC (RADAR)
08:39PM -21.9999 149.2637 149° Southeast 193 222 17,100  Level Aus ATC (RADAR)
08:40PM -22.0229 149.2782 150° Southeast 191 220 17,100  Level Aus ATC (RADAR)
08:40PM -22.0413 149.2913 147° Southeast 191 220 17,100  Level Aus ATC (RADAR)
08:41PM -22.0712 149.3112 148° Southeast 188 216 17,100  Level Aus ATC (RADAR)
08:41PM -22.0972 149.3286 148° Southeast 189 217 17,100  Level Aus ATC (RADAR)
08:42PM -22.1259 149.3476 148° Southeast 184 212 17,100  Level Aus ATC (RADAR)
08:43PM -22.1620 149.3719 148° Southeast 181 208 17,100  Level Aus ATC (RADAR)
08:43PM -22.1804 149.3837 149° Southeast 185 213 17,100  Level Aus ATC (RADAR)
08:44PM -22.2203 149.4097 149° Southeast 181 208 17,100  Level Aus ATC (RADAR)
08:45PM -22.2422 149.4239 149° Southeast 185 213 17,100  Level Aus ATC (RADAR)
08:45PM -22.2566 149.4335 148° Southeast 184 212 17,100  Level Aus ATC (RADAR)
08:46PM -22.2819 149.4503 148° Southeast 182 209 17,100  Level Aus ATC (RADAR)
08:47PM -22.3212 149.4781 147° Southeast 184 212 17,100  Level Aus ATC (RADAR)
08:47PM -22.3503 149.4967 149° Southeast 180 207 17,100  Level Aus ATC (RADAR)
08:48PM -22.3860 149.5215 147° Southeast 182 209 17,100  Level Aus ATC (RADAR)
08:49PM -22.4114 149.5380 149° Southeast 181 208 17,100  Level Aus ATC (RADAR)
08:50PM -22.4690 149.5766 148° Southeast 181 208 17,100  Level Aus ATC (RADAR)
08:50PM -22.4799 149.5838 148° Southeast 185 213 17,100  Level Aus ATC (RADAR)
08:51PM -22.5060 149.6079 140° Southeast 184 212 17,100  Level Aus ATC (RADAR)
08:52PM -22.5382 149.6398 138° Southeast 190 219 17,100  Level Aus ATC (RADAR)
08:52PM -22.5600 149.6631 135° Southeast 187 215 17,100  Level Aus ATC (RADAR)
08:53PM -22.5886 149.6921 137° Southeast 187 215 17,100  Level Aus ATC (RADAR)
08:54PM -22.6080 149.7110 138° Southeast 187 215 17,100  Level Aus ATC (RADAR)
08:55PM -22.6566 149.7574 139° Southeast 186 214 17,100  Level Aus ATC (RADAR)
08:55PM -22.6657 149.7673 135° Southeast 185 213 17,100  Level Aus ATC (RADAR)
08:56PM -22.6881 149.7892 138° Southeast 188 216 17,100  Level Aus ATC (RADAR)
08:56PM -22.7198 149.8209 137° Southeast 185 213 17,100  Level Aus ATC (RADAR)
08:57PM -22.7429 149.8425 139° Southeast 184 212 17,100  Level Aus ATC (RADAR)
08:58PM -22.7745 149.8748 137° Southeast 187 215 17,100  Level Aus ATC (RADAR)
08:58PM -22.7905 149.8907 138° Southeast 184 212 17,100  Level Aus ATC (RADAR)
08:59PM -22.8130 149.9131 137° Southeast 187 215 17,100 -60 Level Aus ATC (RADAR)
09:00PM -22.8553 149.9543 138° Southeast 188 216 17,000 -120 Descending Aus ATC (RADAR)
09:00PM -22.8713 149.9707 137° Southeast 188 216 17,000  Level Aus ATC (RADAR)
09:01PM -22.8968 149.9971 136° Southeast 184 212 17,000  Level Aus ATC (RADAR)
09:02PM -22.9258 150.0264 137° Southeast 188 216 17,000  Level Aus ATC (RADAR)
09:02PM -22.9517 150.0517 138° Southeast 184 212 17,000  Level Aus ATC (RADAR)
09:03PM -22.9809 150.0807 138° Southeast 188 216 17,000  Level Aus ATC (RADAR)
09:04PM -22.9968 150.0960 138° Southeast 182 209 17,000  Level Aus ATC (RADAR)
09:05PM -23.0423 150.1422 137° Southeast 189 217 17,000  Level Aus ATC (RADAR)
09:05PM -23.0649 150.1645 138° Southeast 181 208 17,000  Level Aus ATC (RADAR)
09:06PM -23.0746 150.1746 136° Southeast 185 213 17,000  Level Aus ATC (RADAR)
09:06PM -23.1005 150.2005 137° Southeast 188 216 17,000  Level Aus ATC (RADAR)
09:07PM -23.1292 150.2308 136° Southeast 188 216 17,000  Level Aus ATC (RADAR)
09:08PM -23.1520 150.2539 137° Southeast 191 220 17,000  Level Aus ATC (RADAR)
09:08PM -23.1848 150.2864 138° Southeast 189 217 17,000  Level Aus ATC (RADAR)
09:09PM -23.2011 150.3027 138° Southeast 190 219 17,000  Level Aus ATC (RADAR)
09:10PM -23.2637 150.3648 138° Southeast 190 219 17,000  Level Aus ATC (RADAR)
09:11PM -23.2728 150.3747 135° Southeast 186 214 17,000  Level Aus ATC (RADAR)
09:11PM -23.2991 150.4014 137° Southeast 187 215 17,000  Level Aus ATC (RADAR)
09:12PM -23.3281 150.4306 137° Southeast 187 215 17,000  Level Aus ATC (RADAR)
09:13PM -23.3541 150.4574 137° Southeast 187 215 17,000  Level Aus ATC (RADAR)
09:13PM -23.3822 150.4873 136° Southeast 186 214 17,000  Level Aus ATC (RADAR)
09:14PM -23.3947 150.5085 123° Southeast 190 219 17,000  Level Aus ATC (RADAR)
09:15PM -23.4457 150.5836 127° Southeast 190 219 17,000  Level Aus ATC (RADAR)
09:16PM -23.4535 150.5958 125° Southeast 193 222 17,000  Level Aus ATC (RADAR)
09:16PM -23.4752 150.6275 127° Southeast 193 222 17,000  Level Aus ATC (RADAR)
09:17PM -23.5024 150.6692 125° Southeast 206 237 17,000  Level Aus ATC (RADAR)
09:18PM -23.5215 150.6966 127° Southeast 196 226 17,000  Level Aus ATC (RADAR)
09:19PM -23.5483 150.7363 126° Southeast 195 224 17,000  Level Aus ATC (RADAR)
09:19PM -23.5619 150.7561 127° Southeast 194 223 17,000  Level Aus ATC (RADAR)
09:21PM -23.6108 150.8279 127° Southeast 196 226 17,000  Level Aus ATC (RADAR)
09:21PM -23.6244 150.8477 127° Southeast 195 224 17,000  Level Aus ATC (RADAR)
09:22PM -23.6431 150.8755 126° Southeast 195 224 17,000  Level Aus ATC (RADAR)
09:22PM -23.6644 150.9065 127° Southeast 192 221 17,000  Level Aus ATC (RADAR)
09:23PM -23.6831 150.9341 126° Southeast 193 222 17,000  Level Aus ATC (RADAR)
09:24PM -23.7095 150.9730 127° Southeast 191 220 17,000  Level Aus ATC (RADAR)
09:24PM -23.7227 150.9924 127° Southeast 191 220 17,000  Level Aus ATC (RADAR)
09:26PM -23.7703 151.0628 126° Southeast 192 221 17,000  Level Aus ATC (RADAR)
09:26PM -23.7807 151.0789 125° Southeast 193 222 17,000  Level Aus ATC (RADAR)
09:26PM -23.7996 151.1062 127° Southeast 191 220 17,000  Level Aus ATC (RADAR)
09:27PM -23.8261 151.1461 126° Southeast 193 222 17,000  Level Aus ATC (RADAR)
09:28PM -23.8447 151.1742 126° Southeast 194 223 17,000  Level Aus ATC (RADAR)
09:29PM -23.8762 151.2221 126° Southeast 192 221 17,000  Level Aus ATC (RADAR)
09:29PM -23.8843 151.2339 127° Southeast 193 222 17,000  Level Aus ATC (RADAR)
09:31PM -23.9339 151.3094 126° Southeast 191 220 17,000  Level Aus ATC (RADAR)
09:31PM -23.9470 151.3295 125° Southeast 193 222 17,000  Level Aus ATC (RADAR)
09:32PM -23.9679 151.3613 126° Southeast 192 221 17,000  Level Aus ATC (RADAR)
09:32PM -23.9888 151.3930 126° Southeast 193 222 17,000  Level Aus ATC (RADAR)
09:33PM -24.0071 151.4206 126° Southeast 189 217 17,000  Level Aus ATC (RADAR)
09:34PM -24.0408 151.4488 143° Southeast 180 207 17,000  Level Aus ATC (RADAR)
09:34PM -24.0579 151.4635 142° Southeast 185 213 17,000  Level Aus ATC (RADAR)
09:36PM -24.1079 151.5149 137° Southeast 188 216 17,000  Level Aus ATC (RADAR)
09:36PM -24.1167 151.5253 133° Southeast 187 215 17,000  Level Aus ATC (RADAR)
09:37PM -24.1415 151.5506 137° Southeast 180 207 17,000  Level Aus ATC (RADAR)
09:37PM -24.1736 151.5803 140° Southeast 180 207 17,000  Level Aus ATC (RADAR)
09:38PM -24.1961 151.6008 140° Southeast 180 207 17,000  Level Aus ATC (RADAR)
09:39PM -24.2251 151.6283 139° Southeast 183 211 17,000 -180 Level Aus ATC (RADAR)
09:39PM -24.2415 151.6448 137° Southeast 190 219 16,800 -600 Descending Aus ATC (RADAR)
09:40PM -24.2895 151.6931 137° Southeast 198 228 16,100 -600 Descending Aus ATC (RADAR)
09:41PM -24.3069 151.7103 138° Southeast 199 229 15,900 -600 Descending Aus ATC (RADAR)
09:41PM -24.3273 151.7312 137° Southeast 199 229 15,600 -600 Descending Aus ATC (RADAR)
09:42PM -24.3520 151.7553 138° Southeast 201 231 15,300 -480 Descending Aus ATC (RADAR)
09:42PM -24.3789 151.7833 137° Southeast 201 231 15,000 -600 Descending Aus ATC (RADAR)
09:43PM -24.4030 151.8081 137° Southeast 201 231 14,600 -600 Descending Aus ATC (RADAR)
09:44PM -24.4376 151.8425 138° Southeast 199 229 14,200 -480 Descending Aus ATC (RADAR)
09:44PM -24.4546 151.8595 138° Southeast 198 228 14,000 -540 Descending Aus ATC (RADAR)
09:45PM -24.4938 151.8996 137° Southeast 190 219 13,500 -480 Descending Aus ATC (RADAR)
09:46PM -24.5123 151.9191 136° Southeast 184 212 13,300 -480 Descending Aus ATC (RADAR)
09:46PM -24.5283 151.9348 138° Southeast 184 212 13,100 -540 Descending Aus ATC (RADAR)
09:47PM -24.5503 151.9572 137° Southeast 183 211 12,800 -540 Descending Aus ATC (RADAR)
09:48PM -24.5808 151.9883 137° Southeast 176 203 12,400 -540 Descending Aus ATC (RADAR)
09:48PM -24.6024 152.0104 137° Southeast 177 204 12,100 -480 Descending Aus ATC (RADAR)
09:49PM -24.6321 152.0408 137° Southeast 173 199 11,800 -420 Descending Aus ATC (RADAR)
09:49PM -24.6471 152.0563 137° Southeast 174 200 11,600 -540 Descending Aus ATC (RADAR)
09:50PM -24.6833 152.0921 138° Southeast 173 199 11,100 -480 Descending Aus ATC (RADAR)
09:51PM -24.7008 152.1102 137° Southeast 171 197 10,900 -480 Descending Aus ATC (RADAR)
09:51PM -24.7115 152.1230 133° Southeast 170 196 10,700 -600 Descending Aus ATC (RADAR)
09:52PM -24.7315 152.1438 137° Southeast 167 192 10,400 -480 Descending Aus ATC (RADAR)
09:53PM -24.7567 152.1695 137° Southeast 163 188 10,100 -420 Descending Aus ATC (RADAR)
09:53PM -24.7771 152.1891 139° Southeast 164 189 9,900 -420 Descending Aus ATC (RADAR)
09:54PM -24.8075 152.2205 137° Southeast 162 186 9,500 -480 Descending Aus ATC (RADAR)
09:54PM -24.8159 152.2288 138° Southeast 160 184 9,400 -360 Descending Aus ATC (RADAR)
09:55PM -24.8347 152.2475 138° Southeast 156 180 9,200 -420 Descending Aus ATC (RADAR)
09:56PM -24.8718 152.2849 138° Southeast 153 176 8,700 -480 Descending Aus ATC (RADAR)
09:56PM -24.8794 152.2928 137° Southeast 151 174 8,600 -360 Descending Aus ATC (RADAR)
09:57PM -24.8985 152.3112 139° Southeast 154 177 8,400 -420 Descending Aus ATC (RADAR)
09:58PM -24.9251 152.3445 131° Southeast 161 185 8,000 -480 Descending Aus ATC (RADAR)
09:58PM -24.9409 152.3682 126° Southeast 162 186 7,700 -480 Descending Aus ATC (RADAR)
09:59PM -24.9649 152.4006 129° Southeast 161 185 7,400 -420 Descending Aus ATC (RADAR)
10:00PM -24.9767 152.4174 128° Southeast 163 188 7,200 -480 Descending Aus ATC (RADAR)
10:01PM -25.0190 152.4721 131° Southeast 163 188 6,600 -480 Descending Aus ATC (RADAR)
10:02PM -25.0341 152.4913 131° Southeast 164 189 6,400 -360 Descending Aus ATC (RADAR)
10:02PM -25.0470 152.5076 131° Southeast 166 191 6,300 -420 Descending Aus ATC (RADAR)
10:03PM -25.0653 152.5295 133° Southeast 165 190 6,000 -480 Descending Aus ATC (RADAR)
10:03PM -25.0765 152.5410 137° Southeast 165 190 5,900 -420 Descending Aus ATC (RADAR)
10:04PM -25.0990 152.5778 124° Southeast 176 203 5,500 -420 Descending Aus ATC (RADAR)
10:05PM -25.1226 152.6104 129° Southeast 164 189 5,200 -420 Descending Aus ATC (RADAR)
10:05PM -25.1345 152.6265 129° Southeast 163 188 5,000 -480 Descending Aus ATC (RADAR)
10:06PM -25.1774 152.6749 134° Southeast 165 190 4,400 -480 Descending Aus ATC (RADAR)
10:07PM -25.1828 152.6807 136° Southeast 165 190 4,300 -600 Descending Aus ATC (RADAR)
10:10PM -25.2848 152.8304 127° Southeast -1,440 Descending Aus ATC (Calculated)
10:12PM -25.3189 152.8803 127° Southeast  Level Estimated
10:13PM -25.3189 152.8803 299° West  Level Estimated